createdAt,value
2023-02-03T00:01:10.555Z,4.60
2023-02-03T00:03:56.863Z,4.60
2023-02-03T00:06:43.464Z,4.70
2023-02-03T00:09:31.441Z,4.60
2023-02-03T00:12:18.438Z,4.70
2023-02-03T00:15:05.818Z,4.60
2023-02-03T00:17:52.338Z,4.60
2023-02-03T00:20:38.601Z,4.70
2023-02-03T00:23:25.883Z,4.70
2023-02-03T00:26:18.003Z,4.70
2023-02-03T00:29:04.418Z,4.50
2023-02-03T00:31:50.849Z,4.60
2023-02-03T00:34:37.825Z,4.60
2023-02-03T00:37:24.179Z,4.70
2023-02-03T00:40:11.971Z,4.70
2023-02-03T00:42:59.616Z,4.80
2023-02-03T00:45:45.974Z,4.70
2023-02-03T00:48:32.454Z,4.50
2023-02-03T00:51:18.941Z,4.50
2023-02-03T00:54:05.326Z,4.50
2023-02-03T00:56:52.107Z,4.60
2023-02-03T00:59:39.686Z,4.50
2023-02-03T01:02:26.517Z,4.50
2023-02-03T01:05:13.622Z,4.60
2023-02-03T01:07:59.970Z,4.50
2023-02-03T01:10:46.288Z,4.60
2023-02-03T01:13:32.721Z,4.60
2023-02-03T01:16:22.227Z,4.70
2023-02-03T01:19:08.687Z,4.60
2023-02-03T01:21:55.012Z,4.50
2023-02-03T01:24:41.394Z,4.60
2023-02-03T01:27:27.803Z,4.50
2023-02-03T01:30:14.716Z,4.50
2023-02-03T01:33:02.382Z,4.60
2023-02-03T01:35:48.834Z,4.60
2023-02-03T01:38:35.350Z,4.60
2023-02-03T01:41:24.076Z,4.50
2023-02-03T01:44:36.306Z,4.70
2023-02-03T01:47:28.792Z,4.70
2023-02-03T01:50:20.656Z,4.70
2023-02-03T01:53:12.471Z,4.70
2023-02-03T01:55:59.682Z,4.70
2023-02-03T01:58:48.120Z,4.70
2023-02-03T02:01:35.832Z,4.70
2023-02-03T02:04:26.078Z,4.80
2023-02-03T02:07:15.711Z,4.80
2023-02-03T02:10:03.200Z,4.80
2023-02-03T02:12:49.962Z,5.00
2023-02-03T02:15:45.225Z,5.00
2023-02-03T02:18:46.597Z,5.00
2023-02-03T02:21:55.806Z,5.10
2023-02-03T02:25:29.355Z,5.10
2023-02-03T02:28:49.087Z,5.20
2023-02-03T02:31:54.900Z,5.20
2023-02-03T02:34:50.315Z,5.20
2023-02-03T02:37:43.991Z,5.30
2023-02-03T02:40:36.643Z,5.40
2023-02-03T02:43:29.346Z,5.40
2023-02-03T02:46:19.059Z,5.40
2023-02-03T02:49:11.896Z,5.50
2023-02-03T02:52:01.094Z,5.50
2023-02-03T02:54:53.659Z,5.50
2023-02-03T02:57:40.820Z,5.50
2023-02-03T03:00:30.988Z,5.50
2023-02-03T03:03:19.287Z,5.50
2023-02-03T03:06:10.872Z,5.60
2023-02-03T03:09:03.129Z,5.80
2023-02-03T03:11:52.174Z,5.80
2023-02-03T03:14:46.115Z,5.80
2023-02-03T03:17:35.245Z,5.90
2023-02-03T03:20:26.237Z,5.90
2023-02-03T03:23:20.439Z,5.90
2023-02-03T03:26:13.787Z,5.90
2023-02-03T03:29:08.942Z,6.00
2023-02-03T03:31:55.461Z,6.10
2023-02-03T03:34:42.745Z,6.10
2023-02-03T03:37:35.288Z,6.10
2023-02-03T03:40:28.365Z,6.10
2023-02-03T03:43:18.491Z,6.10
2023-02-03T03:46:11.052Z,6.20
2023-02-03T03:49:00.972Z,6.20
2023-02-03T03:51:51.289Z,6.20
2023-02-03T03:54:39.760Z,6.20
2023-02-03T03:57:32.590Z,6.20
2023-02-03T04:00:22.673Z,6.30
2023-02-03T04:03:15.773Z,6.30
2023-02-03T04:06:02.628Z,6.30
2023-02-03T04:08:49.245Z,6.40
2023-02-03T04:11:53.612Z,6.40
2023-02-03T04:14:41.977Z,6.40
2023-02-03T04:17:28.446Z,6.40
2023-02-03T04:20:15.951Z,6.40
2023-02-03T04:23:02.200Z,6.40
2023-02-03T04:25:48.583Z,6.50
2023-02-03T04:28:35.046Z,6.50
2023-02-03T04:31:23.228Z,6.40
2023-02-03T04:34:09.931Z,6.50
2023-02-03T04:36:56.207Z,6.50
2023-02-03T04:39:42.744Z,6.50
2023-02-03T04:42:29.066Z,6.60
2023-02-03T04:45:15.687Z,6.60
2023-02-03T04:48:04.582Z,6.70
2023-02-03T04:50:50.824Z,6.70
2023-02-03T04:53:37.840Z,6.70
2023-02-03T04:56:24.187Z,6.70
2023-02-03T04:59:10.498Z,6.70
2023-02-03T05:01:56.869Z,6.80
2023-02-03T05:04:44.658Z,6.80
2023-02-03T05:07:31.483Z,6.80
2023-02-03T05:10:18.232Z,6.80
2023-02-03T05:13:04.857Z,6.90
2023-02-03T05:15:51.077Z,6.90
2023-02-03T05:18:37.655Z,6.90
2023-02-03T05:21:25.359Z,7.00
2023-02-03T05:24:12.065Z,7.00
2023-02-03T05:26:58.619Z,7.10
2023-02-03T05:29:44.966Z,7.10
2023-02-03T05:32:31.275Z,7.00
2023-02-03T05:35:17.909Z,7.10
2023-02-03T05:38:06.121Z,7.10
2023-02-03T05:41:25.950Z,7.20
2023-02-03T05:44:12.596Z,7.20
2023-02-03T05:47:00.370Z,7.10
2023-02-03T05:49:46.811Z,7.20
2023-02-03T05:52:33.410Z,7.20
2023-02-03T05:55:21.147Z,7.20
2023-02-03T05:58:07.863Z,7.20
2023-02-03T06:00:54.264Z,7.20
2023-02-03T06:03:40.693Z,7.20
2023-02-03T06:06:32.954Z,7.30
2023-02-03T06:09:19.696Z,7.30
2023-02-03T06:12:08.140Z,7.30
2023-02-03T06:14:54.459Z,7.30
2023-02-03T06:17:40.980Z,7.30
2023-02-03T06:20:27.814Z,7.30
2023-02-03T06:23:14.333Z,7.30
2023-02-03T06:26:01.343Z,7.30
2023-02-03T06:28:49.123Z,7.40
2023-02-03T06:31:35.802Z,7.40
2023-02-03T06:34:22.681Z,7.40
2023-02-03T06:37:09.224Z,7.70
2023-02-03T06:39:55.614Z,7.40
2023-02-03T06:42:42.011Z,7.40
2023-02-03T06:45:30.076Z,7.40
2023-02-03T06:48:16.574Z,7.40
2023-02-03T06:51:04.196Z,7.40
2023-02-03T06:53:50.847Z,7.40
2023-02-03T06:56:37.139Z,7.50
2023-02-03T06:59:23.810Z,7.50
2023-02-03T07:02:12.768Z,7.50
2023-02-03T07:04:59.341Z,7.60
2023-02-03T07:07:45.738Z,7.60
2023-02-03T07:10:32.188Z,7.60
2023-02-03T07:13:18.606Z,7.60
2023-02-03T07:16:05.891Z,7.60
2023-02-03T07:18:54.087Z,7.60
2023-02-03T07:21:41.000Z,7.60
2023-02-03T07:24:27.393Z,7.60
2023-02-03T07:27:14.082Z,7.60
2023-02-03T07:30:00.410Z,7.70
2023-02-03T07:32:50.487Z,7.70
2023-02-03T07:35:38.247Z,7.70
2023-02-03T07:38:26.139Z,7.70
2023-02-03T07:41:12.866Z,7.80
2023-02-03T07:43:59.134Z,7.80
2023-02-03T07:46:45.668Z,7.80
2023-02-03T07:49:32.489Z,7.80
2023-02-03T07:52:21.910Z,7.80
2023-02-03T07:55:09.471Z,7.80
2023-02-03T07:57:56.506Z,7.80
2023-02-03T08:00:42.952Z,7.90
2023-02-03T08:03:29.451Z,7.90
2023-02-03T08:06:16.156Z,7.80
2023-02-03T08:09:04.237Z,7.90
2023-02-03T08:11:50.681Z,7.90
2023-02-03T08:14:36.960Z,8.00
2023-02-03T08:17:23.687Z,8.00
2023-02-03T08:20:11.772Z,8.20
2023-02-03T08:22:58.216Z,8.20
2023-02-03T08:25:46.120Z,8.20
2023-02-03T08:28:32.989Z,8.30
2023-02-03T08:31:19.333Z,8.30
2023-02-03T08:34:06.558Z,8.30
2023-02-03T08:36:53.014Z,8.30
2023-02-03T08:39:39.453Z,8.30
2023-02-03T08:42:27.815Z,8.40
2023-02-03T08:45:14.216Z,8.50
2023-02-03T08:48:00.704Z,8.50
2023-02-03T08:50:52.711Z,8.60
2023-02-03T08:53:39.205Z,8.60
2023-02-03T08:56:27.456Z,8.60
2023-02-03T08:59:16.115Z,8.60
2023-02-03T09:02:03.669Z,8.60
2023-02-03T09:04:50.364Z,8.60
2023-02-03T09:07:36.770Z,8.60
2023-02-03T09:10:23.355Z,8.60
2023-02-03T09:13:09.768Z,8.70
2023-02-03T09:16:01.028Z,8.70
2023-02-03T09:18:47.962Z,8.70
2023-02-03T09:21:42.985Z,8.60
2023-02-03T09:24:34.532Z,8.70
2023-02-03T09:27:21.105Z,8.80
2023-02-03T09:30:08.628Z,8.80
2023-02-03T09:32:57.067Z,8.80
2023-02-03T09:35:43.425Z,8.80
2023-02-03T09:38:30.454Z,8.80
2023-02-03T09:41:26.911Z,8.90
2023-02-03T09:44:17.592Z,8.90
2023-02-03T09:47:10.450Z,8.90
2023-02-03T09:50:01.350Z,9.00
2023-02-03T09:52:47.938Z,9.00
2023-02-03T09:55:37.917Z,8.90
2023-02-03T09:58:24.962Z,8.90
2023-02-03T10:01:15.682Z,8.90
2023-02-03T10:04:06.626Z,8.90
2023-02-03T10:06:58.635Z,8.90
2023-02-03T10:09:53.895Z,8.90
2023-02-03T10:13:04.518Z,8.90
2023-02-03T10:16:08.089Z,9.00
2023-02-03T10:18:57.067Z,9.00
2023-02-03T10:21:48.215Z,8.90
2023-02-03T10:24:41.484Z,9.00
2023-02-03T10:27:30.273Z,9.00
2023-02-03T10:30:21.989Z,9.00
2023-02-03T10:33:12.200Z,9.00
2023-02-03T10:36:11.129Z,9.00
2023-02-03T10:39:02.343Z,8.90
2023-02-03T10:41:50.017Z,8.90
2023-02-03T10:44:40.001Z,9.00
2023-02-03T10:47:29.117Z,9.00
2023-02-03T10:50:18.715Z,9.00
2023-02-03T10:53:23.641Z,9.00
2023-02-03T10:56:13.712Z,9.00
2023-02-03T10:59:02.080Z,9.00
2023-02-03T11:01:51.469Z,9.10
2023-02-03T11:04:37.923Z,9.00
2023-02-03T11:07:26.833Z,9.00
2023-02-03T11:10:35.691Z,8.90
2023-02-03T11:13:24.907Z,8.90
2023-02-03T11:16:16.603Z,8.90
2023-02-03T11:19:04.850Z,8.90
2023-02-03T11:21:55.903Z,8.90
2023-02-03T11:24:45.280Z,8.90
2023-02-03T11:27:34.108Z,8.80
2023-02-03T11:30:25.862Z,8.80
2023-02-03T11:33:20.076Z,8.80
2023-02-03T11:36:07.808Z,8.80
2023-02-03T11:39:08.924Z,8.80
2023-02-03T11:41:56.210Z,8.90
2023-02-03T11:44:42.791Z,8.90
2023-02-03T11:47:29.065Z,9.00
2023-02-03T11:53:26.478Z,9.20
2023-02-03T11:56:26.292Z,9.20
2023-02-03T11:59:37.094Z,9.30
2023-02-03T12:02:57.272Z,9.40
2023-02-03T12:06:08.139Z,9.40
2023-02-03T12:09:05.711Z,9.50
2023-02-03T12:12:22.470Z,9.60
2023-02-03T12:15:25.767Z,9.70
2023-02-03T12:18:22.956Z,9.90
2023-02-03T12:21:32.982Z,9.90
2023-02-03T12:24:31.672Z,9.90
2023-02-03T12:27:28.912Z,9.70
2023-02-03T12:30:20.421Z,9.80
2023-02-03T12:33:14.519Z,9.90
2023-02-03T12:36:09.002Z,9.80
2023-02-03T12:39:01.068Z,9.90
2023-02-03T12:41:51.738Z,9.80
2023-02-03T12:44:44.780Z,9.80
2023-02-03T12:47:35.867Z,9.90
2023-02-03T12:50:30.204Z,9.90
2023-02-03T12:53:21.919Z,9.90
2023-02-03T12:56:13.219Z,9.80
2023-02-03T12:59:05.095Z,9.90
2023-02-03T13:01:55.679Z,9.90
2023-02-03T13:04:47.815Z,10.00
2023-02-03T13:07:42.823Z,9.90
2023-02-03T13:10:36.785Z,9.90
2023-02-03T13:13:33.927Z,9.80
2023-02-03T13:16:25.942Z,9.80
2023-02-03T13:19:18.171Z,9.80
2023-02-03T13:22:14.673Z,9.80
2023-02-03T13:25:10.271Z,9.80
2023-02-03T13:28:07.929Z,9.70
2023-02-03T13:31:13.496Z,9.80
2023-02-03T13:34:14.634Z,9.80
2023-02-03T13:37:23.182Z,9.70
2023-02-03T13:40:20.580Z,9.80
2023-02-03T13:43:16.212Z,9.80
2023-02-03T13:46:09.341Z,9.70
2023-02-03T13:48:58.200Z,9.70
2023-02-03T13:51:47.510Z,9.60
2023-02-03T13:57:26.818Z,9.60
2023-02-03T14:03:44.732Z,9.60
2023-02-03T14:07:02.814Z,9.50
2023-02-03T14:10:07.010Z,9.40
2023-02-03T14:13:00.594Z,9.30
2023-02-03T14:16:23.294Z,9.20
2023-02-03T14:19:12.286Z,9.20
2023-02-03T14:22:02.557Z,9.10
2023-02-03T14:24:50.171Z,9.30
2023-02-03T14:27:36.914Z,9.20
2023-02-03T14:30:23.363Z,9.20
2023-02-03T14:33:09.749Z,9.30
2023-02-03T14:35:57.414Z,9.30
2023-02-03T14:38:45.020Z,9.30
2023-02-03T14:41:45.886Z,9.30
2023-02-03T14:44:41.847Z,9.30
2023-02-03T14:47:44.416Z,9.30
2023-02-03T14:50:39.342Z,9.30
2023-02-03T14:53:51.875Z,9.20
2023-02-03T14:57:04.793Z,9.20
2023-02-03T14:59:57.918Z,9.20
2023-02-03T15:03:22.360Z,9.20
2023-02-03T15:06:28.951Z,9.10
2023-02-03T15:09:23.493Z,9.10
2023-02-03T15:12:21.958Z,9.10
2023-02-03T15:15:23.060Z,9.10
2023-02-03T15:18:22.941Z,9.00
2023-02-03T15:21:17.719Z,9.00
2023-02-03T15:24:04.508Z,8.90
2023-02-03T15:26:54.923Z,8.90
2023-02-03T15:32:34.059Z,8.80
2023-02-03T15:35:21.723Z,8.80
2023-02-03T15:38:13.214Z,8.70
2023-02-03T15:40:59.795Z,8.80
2023-02-03T15:43:49.303Z,8.80
2023-02-03T15:46:42.019Z,8.70
2023-02-03T15:49:31.805Z,8.60
2023-02-03T15:52:22.057Z,8.60
2023-02-03T15:55:17.890Z,8.60
2023-02-03T15:58:05.161Z,8.60
2023-02-03T16:00:56.473Z,8.50
2023-02-03T16:03:46.065Z,8.60
2023-02-03T16:06:38.412Z,8.90
2023-02-03T16:09:31.607Z,8.80
2023-02-03T16:12:20.349Z,8.70
2023-02-03T16:15:07.464Z,8.60
2023-02-03T16:17:58.265Z,8.50
2023-02-03T16:20:50.397Z,8.50
2023-02-03T16:23:36.915Z,8.50
2023-02-03T16:26:26.141Z,8.40
2023-02-03T16:29:32.515Z,8.40
2023-02-03T16:32:38.138Z,8.40
2023-02-03T16:35:43.734Z,8.40
2023-02-03T16:38:47.615Z,8.30
2023-02-03T16:41:51.957Z,8.30
2023-02-03T16:44:55.982Z,8.30
2023-02-03T16:48:00.525Z,8.30
2023-02-03T16:50:51.812Z,8.30
2023-02-03T16:53:38.233Z,8.30
2023-02-03T16:56:24.731Z,8.30
2023-02-03T16:59:11.231Z,8.30
2023-02-03T17:01:57.859Z,8.30
2023-02-03T17:04:45.290Z,8.40
2023-02-03T17:07:33.564Z,8.30
2023-02-03T17:10:20.399Z,8.30
2023-02-03T17:13:07.898Z,8.20
2023-02-03T17:15:54.525Z,8.30
2023-02-03T17:18:41.558Z,8.20
2023-02-03T17:21:29.940Z,8.10
2023-02-03T17:24:17.900Z,8.20
2023-02-03T17:27:04.711Z,8.10
2023-02-03T17:29:50.965Z,8.10
2023-02-03T17:32:37.438Z,8.10
2023-02-03T17:35:23.838Z,8.00
2023-02-03T17:38:11.099Z,8.10
2023-02-03T17:56:09.104Z,7.80
2023-02-03T17:58:57.426Z,7.70
2023-02-03T18:01:46.659Z,7.90
2023-02-03T18:04:33.410Z,7.80
2023-02-03T18:07:19.778Z,7.80
2023-02-03T18:10:06.811Z,7.80
2023-02-03T18:12:54.781Z,7.80
2023-02-03T18:15:41.086Z,7.80
2023-02-03T18:18:29.015Z,7.80
2023-02-03T18:21:17.179Z,7.70
2023-02-03T18:24:05.742Z,7.70
2023-02-03T18:26:53.255Z,7.70
2023-02-03T18:29:42.280Z,7.70
2023-02-03T18:32:29.027Z,7.60
2023-02-03T18:35:17.154Z,7.60
2023-02-03T18:38:03.949Z,7.60
2023-02-03T18:40:50.640Z,7.60
2023-02-03T18:43:37.300Z,7.60
2023-02-03T18:46:27.471Z,7.50
2023-02-03T18:49:14.443Z,7.60
2023-02-03T18:52:00.788Z,7.70
2023-02-03T18:54:47.029Z,7.70
2023-02-03T18:57:33.612Z,7.70
2023-02-03T19:00:20.740Z,7.70
2023-02-03T19:03:09.394Z,7.70
2023-02-03T19:05:56.013Z,7.80
2023-02-03T19:08:42.628Z,7.70
2023-02-03T19:11:29.663Z,7.80
2023-02-03T19:14:17.124Z,7.70
2023-02-03T19:17:04.711Z,7.80
2023-02-03T19:19:52.585Z,7.70
2023-02-03T19:22:38.911Z,7.80
2023-02-03T19:25:25.338Z,7.70
2023-02-03T19:28:20.108Z,7.70
2023-02-03T19:31:15.118Z,7.70
2023-02-03T19:34:01.992Z,7.70
2023-02-03T19:36:50.123Z,7.60
2023-02-03T19:39:36.872Z,7.60
2023-02-03T19:42:23.084Z,7.60
2023-02-03T19:45:10.156Z,7.50
2023-02-03T19:47:56.768Z,7.60
2023-02-03T19:50:45.879Z,7.50
2023-02-03T19:53:33.821Z,7.60
2023-02-03T19:56:20.510Z,7.40
2023-02-03T19:59:06.954Z,7.40
2023-02-03T20:01:53.529Z,7.40
2023-02-03T20:04:39.919Z,7.40
2023-02-03T20:07:28.385Z,7.30
2023-02-03T20:10:17.006Z,7.30
2023-02-03T20:13:03.325Z,7.20
2023-02-03T20:15:49.959Z,7.20
2023-02-03T20:18:36.222Z,7.20
2023-02-03T20:21:22.653Z,7.20
2023-02-03T20:24:09.060Z,7.20
2023-02-03T20:26:56.682Z,7.20
2023-02-03T20:29:42.945Z,7.10
2023-02-03T20:32:30.179Z,7.10
2023-02-03T20:35:16.975Z,7.10
2023-02-03T20:38:03.569Z,7.00
2023-02-03T20:40:50.159Z,7.00
2023-02-03T20:43:38.018Z,7.00
2023-02-03T20:46:24.737Z,7.10
2023-02-03T20:49:12.988Z,7.10
2023-02-03T20:52:00.565Z,7.00
2023-02-03T20:54:48.091Z,7.00
2023-02-03T20:57:34.936Z,7.00
2023-02-03T21:00:25.905Z,7.10
2023-02-03T21:03:33.302Z,7.00
2023-02-03T21:06:21.515Z,7.00
2023-02-03T21:09:14.945Z,6.90
2023-02-03T21:12:01.259Z,7.00
2023-02-03T21:14:49.213Z,7.00
2023-02-03T21:17:37.562Z,7.00
2023-02-03T21:20:31.752Z,7.00
2023-02-03T21:23:18.863Z,7.00
2023-02-03T21:26:20.222Z,7.10
2023-02-03T21:29:18.538Z,7.10
2023-02-03T21:32:05.369Z,7.10
2023-02-03T21:34:53.099Z,7.20
2023-02-03T21:37:41.596Z,7.10
2023-02-03T21:40:29.877Z,7.10
2023-02-03T21:43:19.201Z,7.10
2023-02-03T21:46:06.325Z,7.10
2023-02-03T21:48:54.210Z,7.00
2023-02-03T21:51:42.612Z,7.10
2023-02-03T21:54:30.941Z,7.10
2023-02-03T21:57:18.161Z,7.10
2023-02-03T22:00:38.896Z,7.10
2023-02-03T22:03:27.775Z,7.20
2023-02-03T22:06:28.674Z,7.10
2023-02-03T22:09:18.305Z,7.10
2023-02-03T22:12:05.332Z,7.10
2023-02-03T22:14:51.915Z,7.10
2023-02-03T22:17:38.240Z,7.10
2023-02-03T22:20:24.760Z,7.10
2023-02-03T22:23:11.320Z,7.20
2023-02-03T22:25:59.007Z,7.20
2023-02-03T22:28:46.029Z,7.20
2023-02-03T22:31:32.861Z,7.20
2023-02-03T22:34:20.047Z,7.20
2023-02-03T22:37:06.517Z,7.10
2023-02-03T22:39:52.893Z,7.10
2023-02-03T22:42:40.898Z,7.10
2023-02-03T22:45:27.426Z,7.10
2023-02-03T22:48:13.930Z,7.10
2023-02-03T22:51:01.315Z,7.10
2023-02-03T22:53:47.997Z,7.00
2023-02-03T22:56:34.460Z,6.90
2023-02-03T22:59:22.176Z,7.00
2023-02-03T23:02:08.655Z,7.00
2023-02-03T23:04:55.280Z,6.90
2023-02-03T23:07:42.221Z,6.90
2023-02-03T23:10:32.103Z,6.90
2023-02-03T23:13:18.607Z,6.90
2023-02-03T23:16:06.915Z,6.90
2023-02-03T23:18:53.492Z,6.80
2023-02-03T23:21:41.263Z,6.90
2023-02-03T23:24:27.914Z,7.00
2023-02-03T23:27:14.698Z,7.00
2023-02-03T23:30:01.199Z,7.00
2023-02-03T23:32:48.960Z,7.00
2023-02-03T23:35:46.400Z,7.00
2023-02-03T23:38:33.594Z,7.00
2023-02-03T23:41:20.350Z,7.00
2023-02-03T23:44:06.893Z,7.00
2023-02-03T23:46:53.393Z,7.00
2023-02-03T23:49:41.175Z,6.70
2023-02-03T23:52:27.890Z,6.00
2023-02-03T23:55:16.589Z,5.00
2023-02-03T23:58:04.949Z,4.70
